createdAt,value
2019-03-22T00:00:14.269Z,18.67
2019-03-22T00:02:45.125Z,17.60
2019-03-22T00:05:14.418Z,16.10
2019-03-22T00:07:43.638Z,17.17
2019-03-22T00:10:13.033Z,16.10
2019-03-22T00:12:42.441Z,15.63
2019-03-22T00:15:11.738Z,15.38
2019-03-22T00:17:42.056Z,18.52
2019-03-22T00:20:11.268Z,17.70
2019-03-22T00:22:40.610Z,17.07
2019-03-22T00:25:10.815Z,19.82
2019-03-22T00:27:40.179Z,15.90
2019-03-22T00:30:10.008Z,16.23
2019-03-22T00:32:39.231Z,18.20
2019-03-22T00:35:08.830Z,15.85
2019-03-22T00:37:38.046Z,19.12
2019-03-22T00:40:08.314Z,15.53
2019-03-22T00:42:37.554Z,15.45
2019-03-22T00:45:07.633Z,16.93
2019-03-22T00:47:36.954Z,14.20
2019-03-22T00:50:06.734Z,17.23
2019-03-22T00:52:35.956Z,18.87
2019-03-22T00:55:05.457Z,16.30
2019-03-22T00:57:34.850Z,19.62
2019-03-22T01:00:08.353Z,18.92
2019-03-22T01:02:37.570Z,17.27
2019-03-22T01:05:07.657Z,19.82
2019-03-22T01:07:36.960Z,15.88
2019-03-22T01:10:10.763Z,19.42
2019-03-22T01:12:40.048Z,21.40
2019-03-22T01:15:10.073Z,16.10
2019-03-22T01:17:39.495Z,18.50
2019-03-22T01:20:09.301Z,16.80
2019-03-22T01:22:39.699Z,16.32
2019-03-22T01:25:09.337Z,16.40
2019-03-22T01:27:40.767Z,15.98
2019-03-22T01:30:11.107Z,15.95
2019-03-22T01:32:40.365Z,15.78
2019-03-22T01:35:10.032Z,16.23
2019-03-22T01:37:39.224Z,16.02
2019-03-22T01:40:09.370Z,15.85
2019-03-22T01:42:38.651Z,13.10
2019-03-22T01:45:09.385Z,15.70
2019-03-22T01:47:38.612Z,17.00
2019-03-22T01:50:10.581Z,15.55
2019-03-22T01:52:39.945Z,16.82
2019-03-22T01:55:10.297Z,16.37
2019-03-22T01:57:39.528Z,17.15
2019-03-22T02:00:10.394Z,16.12
2019-03-22T02:02:39.708Z,16.57
2019-03-22T02:05:09.932Z,15.58
2019-03-22T02:07:39.305Z,17.85
2019-03-22T02:10:09.842Z,18.65
2019-03-22T02:12:39.254Z,16.45
2019-03-22T02:15:11.667Z,16.80
2019-03-22T02:17:41.141Z,15.30
2019-03-22T02:20:11.254Z,13.43
2019-03-22T02:22:40.484Z,14.95
2019-03-22T02:25:09.958Z,15.93
2019-03-22T02:27:39.139Z,15.98
2019-03-22T02:30:10.000Z,17.52
2019-03-22T02:32:39.283Z,17.70
2019-03-22T02:35:08.522Z,14.20
2019-03-22T02:37:37.783Z,14.20
2019-03-22T02:40:07.817Z,16.50
2019-03-22T02:42:38.977Z,16.90
2019-03-22T02:45:09.784Z,18.07
2019-03-22T02:47:38.984Z,19.37
2019-03-22T02:50:17.989Z,15.05
2019-03-22T02:52:40.976Z,18.95
2019-03-22T02:55:10.761Z,18.82
2019-03-22T02:57:40.082Z,16.55
2019-03-22T03:00:11.924Z,15.93
2019-03-22T03:02:42.178Z,17.07
2019-03-22T03:05:11.545Z,17.42
2019-03-22T03:07:40.702Z,18.30
2019-03-22T03:10:13.683Z,15.53
2019-03-22T03:12:43.138Z,17.45
2019-03-22T03:15:14.025Z,15.65
2019-03-22T03:17:43.435Z,15.28
2019-03-22T03:20:13.818Z,16.77
2019-03-22T03:22:43.116Z,19.20
2019-03-22T03:25:12.506Z,14.87
2019-03-22T03:27:41.805Z,19.90
2019-03-22T03:30:12.555Z,16.35
2019-03-22T03:32:41.849Z,16.52
2019-03-22T03:35:11.368Z,15.13
2019-03-22T03:37:40.643Z,15.23
2019-03-22T03:40:13.535Z,16.70
2019-03-22T03:42:42.661Z,17.70
2019-03-22T03:45:13.465Z,14.20
2019-03-22T03:47:42.660Z,15.48
2019-03-22T03:50:11.919Z,15.85
2019-03-22T03:52:41.167Z,16.23
2019-03-22T03:55:10.509Z,14.85
2019-03-22T03:57:39.859Z,15.35
2019-03-22T04:00:09.268Z,15.35
2019-03-22T04:02:38.497Z,16.05
2019-03-22T04:05:08.959Z,15.72
2019-03-22T04:07:38.183Z,15.63
2019-03-22T04:10:09.326Z,14.35
2019-03-22T04:12:38.542Z,16.30
2019-03-22T04:15:07.959Z,14.55
2019-03-22T04:17:37.267Z,15.13
2019-03-22T04:20:06.842Z,14.83
2019-03-22T04:22:36.484Z,16.73
2019-03-22T04:25:08.720Z,17.55
2019-03-22T04:27:38.016Z,17.37
2019-03-22T04:30:07.645Z,13.20
2019-03-22T04:32:38.747Z,17.40
2019-03-22T04:35:08.161Z,17.05
2019-03-22T04:37:37.369Z,19.92
2019-03-22T04:40:08.222Z,20.20
2019-03-22T04:42:39.165Z,17.07
2019-03-22T04:45:08.337Z,18.12
2019-03-22T04:47:37.538Z,20.95
2019-03-22T04:50:07.253Z,20.52
2019-03-22T04:52:38.345Z,19.23
2019-03-22T04:55:07.536Z,18.90
2019-03-22T04:57:37.708Z,15.08
2019-03-22T05:00:09.902Z,16.60
2019-03-22T05:02:39.987Z,17.02
2019-03-22T05:05:10.011Z,18.75
2019-03-22T05:07:39.313Z,17.02
2019-03-22T05:10:09.832Z,17.70
2019-03-22T05:12:40.176Z,17.30
2019-03-22T05:15:10.684Z,17.20
2019-03-22T05:17:40.554Z,15.35
2019-03-22T05:20:10.729Z,15.45
2019-03-22T05:23:00.641Z,16.02
2019-03-22T05:25:30.088Z,13.15
2019-03-22T05:27:59.952Z,13.98
2019-03-22T05:30:47.274Z,15.85
2019-03-22T05:33:16.489Z,18.67
2019-03-22T05:35:45.722Z,16.12
2019-03-22T05:38:14.963Z,13.15
2019-03-22T05:40:44.098Z,15.18
2019-03-22T05:43:13.230Z,14.60
2019-03-22T05:45:42.493Z,15.70
2019-03-22T05:48:11.658Z,15.28
2019-03-22T05:50:40.971Z,15.32
2019-03-22T05:53:10.355Z,14.55
2019-03-22T05:55:39.554Z,15.48
2019-03-22T05:58:08.797Z,16.20
2019-03-22T06:00:38.080Z,15.10
2019-03-22T06:03:07.310Z,13.78
2019-03-22T06:05:36.533Z,13.95
2019-03-22T06:08:05.707Z,13.48
2019-03-22T06:10:34.915Z,13.85
2019-03-22T06:13:04.159Z,15.85
2019-03-22T06:15:33.281Z,14.18
2019-03-22T06:18:02.545Z,13.68
2019-03-22T06:20:31.765Z,15.23
2019-03-22T06:23:01.072Z,14.53
2019-03-22T06:25:30.254Z,12.25
2019-03-22T06:27:59.467Z,11.50
2019-03-22T06:30:28.615Z,14.10
2019-03-22T06:32:57.811Z,10.45
2019-03-22T06:35:28.036Z,10.23
2019-03-22T06:37:57.254Z,13.28
2019-03-22T06:40:26.426Z,12.18
2019-03-22T06:42:55.602Z,13.10
2019-03-22T06:45:24.762Z,13.85
2019-03-22T06:47:53.972Z,14.20
2019-03-22T06:50:23.187Z,13.20
2019-03-22T06:52:52.367Z,14.30
2019-03-22T06:55:21.536Z,10.28
2019-03-22T06:57:50.701Z,12.35
2019-03-22T07:00:19.784Z,16.02
2019-03-22T07:02:48.962Z,10.95
2019-03-22T07:05:18.180Z,11.10
2019-03-22T07:07:47.370Z,11.08
2019-03-22T07:10:16.526Z,12.25
2019-03-22T07:12:45.675Z,11.38
2019-03-22T07:15:15.997Z,13.80
2019-03-22T07:17:45.114Z,11.85
2019-03-22T07:20:14.413Z,11.28
2019-03-22T07:22:43.690Z,10.88
2019-03-22T07:25:12.937Z,13.48
2019-03-22T07:27:42.131Z,11.55
2019-03-22T07:30:18.665Z,13.98
2019-03-22T07:32:43.664Z,10.58
2019-03-22T07:35:12.850Z,10.15
2019-03-22T07:37:42.162Z,12.68
2019-03-22T07:40:12.185Z,12.47
2019-03-22T07:42:41.379Z,11.78
2019-03-22T07:45:11.336Z,11.40
2019-03-22T07:47:40.463Z,14.33
2019-03-22T07:50:11.017Z,11.38
2019-03-22T07:52:40.241Z,10.60
2019-03-22T07:55:09.528Z,12.43
2019-03-22T07:57:38.697Z,12.07
2019-03-22T08:00:09.422Z,10.23
2019-03-22T08:02:38.634Z,11.55
2019-03-22T08:05:07.988Z,11.12
2019-03-22T08:07:37.284Z,12.68
2019-03-22T08:10:07.719Z,11.03
2019-03-22T08:12:37.023Z,16.27
2019-03-22T08:15:08.379Z,13.03
2019-03-22T08:17:37.829Z,14.13
2019-03-22T08:20:07.452Z,15.28
2019-03-22T08:22:36.743Z,12.15
2019-03-22T08:25:05.984Z,13.60
2019-03-22T08:27:35.296Z,13.13
2019-03-22T08:30:05.455Z,13.72
2019-03-22T08:32:34.676Z,14.28
2019-03-22T08:35:03.952Z,13.30
2019-03-22T08:37:33.322Z,13.85
2019-03-22T08:40:02.612Z,14.25
2019-03-22T08:42:31.961Z,15.15
2019-03-22T08:45:01.213Z,15.53
2019-03-22T08:47:34.235Z,15.18
2019-03-22T08:50:01.471Z,16.95
2019-03-22T08:52:30.776Z,19.42
2019-03-22T08:55:00.392Z,18.12
2019-03-22T08:57:29.778Z,20.10
2019-03-22T08:59:59.055Z,22.32
2019-03-22T09:02:28.453Z,20.45
2019-03-22T09:04:57.784Z,21.93
2019-03-22T09:07:27.073Z,20.52
2019-03-22T09:09:56.404Z,24.80
2019-03-22T09:12:26.941Z,25.40
2019-03-22T09:14:56.411Z,25.52
2019-03-22T09:17:25.672Z,32.15
2019-03-22T09:19:54.971Z,26.95
2019-03-22T09:22:24.212Z,28.05
2019-03-22T09:24:53.533Z,26.97
2019-03-22T09:27:22.726Z,27.42
2019-03-22T09:29:52.006Z,26.55
2019-03-22T09:32:21.385Z,23.92
2019-03-22T09:34:50.566Z,29.10
2019-03-22T09:37:19.875Z,27.07
2019-03-22T09:39:49.216Z,26.07
2019-03-22T09:42:18.485Z,27.22
2019-03-22T09:44:48.705Z,23.18
2019-03-22T09:47:18.053Z,24.40
2019-03-22T09:49:47.318Z,20.68
2019-03-22T09:52:17.520Z,25.45
2019-03-22T09:54:46.749Z,23.98
2019-03-22T09:57:17.120Z,22.60
2019-03-22T09:59:46.417Z,20.95
2019-03-22T10:02:15.558Z,20.55
2019-03-22T10:04:44.796Z,19.12
2019-03-22T10:07:14.093Z,18.77
2019-03-22T10:09:43.454Z,20.80
2019-03-22T10:12:12.745Z,19.70
2019-03-22T10:14:41.974Z,23.50
2019-03-22T10:17:11.327Z,21.87
2019-03-22T10:19:42.142Z,23.02
2019-03-22T10:22:11.265Z,20.92
2019-03-22T10:24:40.396Z,17.52
2019-03-22T10:27:09.665Z,18.10
2019-03-22T10:29:38.827Z,17.62
2019-03-22T10:32:08.203Z,19.45
2019-03-22T10:34:39.760Z,17.82
2019-03-22T10:37:09.420Z,16.95
2019-03-22T10:39:38.807Z,17.17
2019-03-22T10:42:08.066Z,18.07
2019-03-22T10:44:39.363Z,18.87
2019-03-22T10:47:08.286Z,23.32
2019-03-22T10:49:37.452Z,19.12
2019-03-22T10:52:06.630Z,17.92
2019-03-22T10:54:35.908Z,17.73
2019-03-22T10:57:05.177Z,18.42
2019-03-22T10:59:34.535Z,20.55
2019-03-22T11:02:05.139Z,20.65
2019-03-22T11:04:34.820Z,18.60
2019-03-22T11:07:04.161Z,17.65
2019-03-22T11:09:33.286Z,20.72
2019-03-22T11:12:11.911Z,22.07
2019-03-22T11:14:33.301Z,19.20
2019-03-22T11:17:02.454Z,19.07
2019-03-22T11:19:31.666Z,17.90
2019-03-22T11:22:00.969Z,15.38
2019-03-22T11:24:30.241Z,17.10
2019-03-22T11:26:59.656Z,16.50
2019-03-22T11:29:28.898Z,17.40
2019-03-22T11:31:58.139Z,18.67
2019-03-22T11:34:27.456Z,17.87
2019-03-22T11:36:56.841Z,19.25
2019-03-22T11:39:26.143Z,15.80
2019-03-22T11:41:55.427Z,17.70
2019-03-22T11:44:24.587Z,16.73
2019-03-22T11:46:53.774Z,19.07
2019-03-22T11:49:22.918Z,19.00
2019-03-22T11:51:52.148Z,15.70
2019-03-22T11:54:21.326Z,15.68
2019-03-22T11:56:50.469Z,17.95
2019-03-22T11:59:19.637Z,17.27
2019-03-22T12:01:48.899Z,16.32
2019-03-22T12:04:18.193Z,15.03
2019-03-22T12:06:47.472Z,13.13
2019-03-22T12:09:16.689Z,17.32
2019-03-22T12:11:46.089Z,17.05
2019-03-22T12:14:15.358Z,15.80
2019-03-22T12:16:44.514Z,17.37
2019-03-22T12:19:13.755Z,14.15
2019-03-22T12:21:42.978Z,14.87
2019-03-22T12:24:12.136Z,13.28
2019-03-22T12:26:41.401Z,13.15
2019-03-22T12:29:10.998Z,15.25
2019-03-22T12:31:40.321Z,15.30
2019-03-22T12:34:09.599Z,12.43
2019-03-22T12:36:38.863Z,13.13
2019-03-22T12:39:08.326Z,12.43
2019-03-22T12:41:37.596Z,14.18
2019-03-22T12:44:06.882Z,14.63
2019-03-22T12:46:36.135Z,15.45
2019-03-22T12:49:05.386Z,13.75
2019-03-22T12:51:34.656Z,13.58
2019-03-22T12:54:03.930Z,16.82
2019-03-22T12:56:33.181Z,16.05
2019-03-22T12:59:02.407Z,17.90
2019-03-22T13:01:31.744Z,17.10
2019-03-22T13:04:00.939Z,18.07
2019-03-22T13:06:30.313Z,21.42
2019-03-22T13:08:59.531Z,18.23
2019-03-22T13:11:28.888Z,16.70
2019-03-22T13:13:58.171Z,18.87
2019-03-22T13:16:27.416Z,21.17
2019-03-22T13:18:56.734Z,18.57
2019-03-22T13:21:25.963Z,19.25
2019-03-22T13:23:56.268Z,19.80
2019-03-22T13:26:26.557Z,19.50
2019-03-22T13:28:55.896Z,25.05
2019-03-22T13:31:25.195Z,24.90
2019-03-22T13:33:54.521Z,20.75
2019-03-22T13:36:23.743Z,18.37
2019-03-22T13:38:53.056Z,21.15
2019-03-22T13:41:22.343Z,19.20
2019-03-22T13:43:51.655Z,21.42
2019-03-22T13:46:21.016Z,18.67
2019-03-22T13:48:50.259Z,21.70
2019-03-22T13:51:19.492Z,21.70
2019-03-22T13:53:48.752Z,18.20
2019-03-22T13:56:17.986Z,20.80
2019-03-22T13:58:47.300Z,17.17
2019-03-22T14:01:16.527Z,20.27
2019-03-22T14:03:45.917Z,19.52
2019-03-22T14:06:15.261Z,18.75
2019-03-22T14:08:44.613Z,17.40
2019-03-22T14:11:13.806Z,18.37
2019-03-22T14:13:44.590Z,20.80
2019-03-22T14:16:13.907Z,16.30
2019-03-22T14:18:43.250Z,20.43
2019-03-22T14:21:12.509Z,24.87
2019-03-22T14:23:45.243Z,15.90
2019-03-22T14:26:15.584Z,16.73
2019-03-22T14:28:44.986Z,20.35
2019-03-22T14:31:14.279Z,18.52
2019-03-22T14:33:43.433Z,20.77
2019-03-22T14:36:13.734Z,15.03
2019-03-22T14:38:44.297Z,14.00
2019-03-22T14:41:13.808Z,17.62
2019-03-22T14:43:43.070Z,18.82
2019-03-22T14:46:12.414Z,14.25
2019-03-22T14:48:41.730Z,16.48
2019-03-22T14:51:11.041Z,19.85
2019-03-22T14:53:40.368Z,20.60
2019-03-22T14:56:09.587Z,22.67
2019-03-22T14:58:38.870Z,20.52
2019-03-22T15:01:08.200Z,19.82
2019-03-22T15:03:37.479Z,19.07
2019-03-22T15:06:06.835Z,20.00
2019-03-22T15:08:36.121Z,17.32
2019-03-22T15:11:05.549Z,23.20
2019-03-22T15:13:36.512Z,22.52
2019-03-22T15:16:15.941Z,17.55
2019-03-22T15:18:56.151Z,18.98
2019-03-22T15:21:43.398Z,21.45
2019-03-22T15:24:19.419Z,17.70
2019-03-22T15:27:08.096Z,20.80
2019-03-22T15:29:55.845Z,21.15
2019-03-22T15:32:31.390Z,17.55
2019-03-22T15:35:08.412Z,21.07
2019-03-22T15:37:42.322Z,24.43
2019-03-22T15:40:11.672Z,22.13
2019-03-22T15:42:41.068Z,20.82
2019-03-22T15:45:10.711Z,19.20
2019-03-22T15:47:40.081Z,19.95
2019-03-22T15:50:12.127Z,19.50
2019-03-22T15:52:41.423Z,19.77
2019-03-22T15:55:12.025Z,21.12
2019-03-22T15:57:41.215Z,18.15
2019-03-22T16:00:12.031Z,18.02
2019-03-22T16:02:42.319Z,22.60
2019-03-22T16:05:12.219Z,19.42
2019-03-22T16:07:41.452Z,25.95
2019-03-22T16:10:11.413Z,21.95
2019-03-22T16:12:41.126Z,22.80
2019-03-22T16:15:11.925Z,25.80
2019-03-22T16:17:41.114Z,26.30
2019-03-22T16:20:11.639Z,23.77
2019-03-22T16:22:40.944Z,26.20
2019-03-22T16:25:11.118Z,24.87
2019-03-22T16:27:41.755Z,22.50
2019-03-22T16:30:12.625Z,26.45
2019-03-22T16:32:41.931Z,25.32
2019-03-22T16:35:11.210Z,27.17
2019-03-22T16:37:40.431Z,27.98
2019-03-22T16:40:11.767Z,25.02
2019-03-22T16:42:41.188Z,27.98
2019-03-22T16:45:10.899Z,29.27
2019-03-22T16:47:41.601Z,29.75
2019-03-22T16:50:43.908Z,29.07
2019-03-22T16:53:13.203Z,24.80
2019-03-22T16:55:42.571Z,29.50
2019-03-22T16:58:11.754Z,28.73
2019-03-22T17:00:43.044Z,29.12
2019-03-22T17:03:12.538Z,25.40
2019-03-22T17:05:43.257Z,32.48
2019-03-22T17:08:17.246Z,32.05
2019-03-22T17:10:49.179Z,35.85
2019-03-22T17:13:19.226Z,33.40
2019-03-22T17:15:49.164Z,30.52
2019-03-22T17:18:20.064Z,31.10
2019-03-22T17:20:50.023Z,43.25
2019-03-22T17:23:22.210Z,36.95
2019-03-22T17:25:52.514Z,34.95
2019-03-22T17:28:24.069Z,29.25
2019-03-22T17:30:54.687Z,26.62
2019-03-22T17:33:25.861Z,27.90
2019-03-22T17:35:55.251Z,27.70
2019-03-22T17:38:24.516Z,29.23
2019-03-22T17:40:53.774Z,28.12
2019-03-22T17:43:23.143Z,26.30
2019-03-22T17:45:52.474Z,25.62
2019-03-22T17:48:21.823Z,24.82
2019-03-22T17:50:52.178Z,25.97
2019-03-22T17:53:21.470Z,29.32
2019-03-22T17:55:50.841Z,31.62
2019-03-22T17:58:20.127Z,28.75
2019-03-22T18:00:52.459Z,30.40
2019-03-22T18:03:23.760Z,26.80
2019-03-22T18:05:53.141Z,25.75
2019-03-22T18:08:26.064Z,31.73
2019-03-22T18:10:55.400Z,22.58
2019-03-22T18:13:24.673Z,27.17
2019-03-22T18:15:53.999Z,25.40
2019-03-22T18:18:23.301Z,25.62
2019-03-22T18:20:52.642Z,29.27
2019-03-22T18:23:22.005Z,31.42
2019-03-22T18:25:51.326Z,27.00
2019-03-22T18:28:20.675Z,27.25
2019-03-22T18:30:49.997Z,26.12
2019-03-22T18:33:19.369Z,30.27
2019-03-22T18:35:48.665Z,29.87
2019-03-22T18:38:17.913Z,23.75
2019-03-22T18:40:47.072Z,25.23
2019-03-22T18:43:16.357Z,25.00
2019-03-22T18:45:45.487Z,21.30
2019-03-22T18:48:14.653Z,31.07
2019-03-22T18:50:43.869Z,19.50
2019-03-22T18:53:13.115Z,17.50
2019-03-22T18:55:42.679Z,17.90
2019-03-22T18:58:11.898Z,17.85
2019-03-22T19:00:41.094Z,21.52
2019-03-22T19:03:10.354Z,18.80
2019-03-22T19:05:39.618Z,23.70
2019-03-22T19:08:08.869Z,17.15
2019-03-22T19:10:38.107Z,19.30
2019-03-22T19:13:07.862Z,17.32
2019-03-22T19:15:37.271Z,21.75
2019-03-22T19:18:08.380Z,22.07
2019-03-22T19:20:37.494Z,19.12
2019-03-22T19:23:06.696Z,17.42
2019-03-22T19:25:35.898Z,18.12
2019-03-22T19:28:05.302Z,16.65
2019-03-22T19:30:34.615Z,13.35
2019-03-22T19:33:03.813Z,18.30
2019-03-22T19:35:33.010Z,15.80
2019-03-22T19:38:02.187Z,12.07
2019-03-22T19:40:31.355Z,11.65
2019-03-22T19:43:00.585Z,15.00
2019-03-22T19:45:29.735Z,12.13
2019-03-22T19:47:58.917Z,14.25
2019-03-22T19:50:28.171Z,15.80
2019-03-22T19:52:57.363Z,14.78
2019-03-22T19:55:26.681Z,12.40
2019-03-22T19:57:55.877Z,12.35
2019-03-22T20:00:25.031Z,11.83
2019-03-22T20:02:54.288Z,12.55
2019-03-22T20:05:27.431Z,15.13
2019-03-22T20:07:56.881Z,15.50
2019-03-22T20:10:26.172Z,16.75
2019-03-22T20:12:55.663Z,13.48
2019-03-22T20:15:24.973Z,19.05
2019-03-22T20:17:54.131Z,14.85
2019-03-22T20:20:23.294Z,16.85
2019-03-22T20:22:52.564Z,16.02
2019-03-22T20:25:21.719Z,15.85
2019-03-22T20:27:51.062Z,17.05
2019-03-22T20:30:20.686Z,15.32
2019-03-22T20:32:49.902Z,17.57
2019-03-22T20:35:19.182Z,18.75
2019-03-22T20:37:48.402Z,15.18
2019-03-22T20:40:18.158Z,12.55
2019-03-22T20:42:47.477Z,19.35
2019-03-22T20:45:24.093Z,15.80
2019-03-22T20:47:47.609Z,17.15
2019-03-22T20:50:16.861Z,18.02
2019-03-22T20:52:46.072Z,17.82
2019-03-22T20:55:15.305Z,20.02
2019-03-22T20:57:44.482Z,15.25
2019-03-22T21:00:14.467Z,18.73
2019-03-22T21:02:45.094Z,22.48
2019-03-22T21:05:26.392Z,18.80
2019-03-22T21:07:47.874Z,23.20
2019-03-22T21:10:20.114Z,20.50
2019-03-22T21:12:49.395Z,18.55
2019-03-22T21:15:24.585Z,18.15
2019-03-22T21:17:51.251Z,16.97
2019-03-22T21:20:20.753Z,17.25
2019-03-22T21:22:50.159Z,17.32
2019-03-22T21:25:22.346Z,21.97
2019-03-22T21:27:54.062Z,16.55
2019-03-22T21:30:23.514Z,18.35
2019-03-22T21:32:53.164Z,19.92
2019-03-22T21:35:23.202Z,17.40
2019-03-22T21:37:52.650Z,18.85
2019-03-22T21:40:22.234Z,19.70
2019-03-22T21:42:51.995Z,17.77
2019-03-22T21:45:23.559Z,21.23
2019-03-22T21:47:53.245Z,18.02
2019-03-22T21:50:23.037Z,20.35
2019-03-22T21:52:52.740Z,22.25
2019-03-22T21:55:22.612Z,20.08
2019-03-22T21:57:52.329Z,23.07
2019-03-22T22:00:22.072Z,19.65
2019-03-22T22:02:51.686Z,19.17
2019-03-22T22:05:21.962Z,21.12
2019-03-22T22:07:51.574Z,20.25
2019-03-22T22:10:22.266Z,19.05
2019-03-22T22:12:52.126Z,21.12
2019-03-22T22:15:21.624Z,20.90
2019-03-22T22:17:50.973Z,22.55
2019-03-22T22:20:28.550Z,22.58
2019-03-22T22:22:51.635Z,22.40
2019-03-22T22:25:21.113Z,23.22
2019-03-22T22:27:52.163Z,25.32
2019-03-22T22:30:22.521Z,22.62
2019-03-22T22:32:52.152Z,21.82
2019-03-22T22:35:24.780Z,20.65
2019-03-22T22:37:54.846Z,20.00
2019-03-22T22:40:24.176Z,20.62
2019-03-22T22:42:54.209Z,18.70
2019-03-22T22:45:23.649Z,18.30
2019-03-22T22:47:53.814Z,19.50
2019-03-22T22:50:23.011Z,16.77
2019-03-22T22:52:52.386Z,20.62
2019-03-22T22:55:21.774Z,17.67
2019-03-22T22:57:51.188Z,20.02
2019-03-22T23:00:21.141Z,21.97
2019-03-22T23:02:51.993Z,21.70
2019-03-22T23:05:21.445Z,18.55
2019-03-22T23:07:50.710Z,21.52
2019-03-22T23:10:20.051Z,21.00
2019-03-22T23:12:49.274Z,23.60
2019-03-22T23:15:18.673Z,23.40
2019-03-22T23:17:47.963Z,21.45
2019-03-22T23:20:17.369Z,17.62
2019-03-22T23:22:46.710Z,19.40
2019-03-22T23:25:16.061Z,21.95
2019-03-22T23:27:45.280Z,19.35
2019-03-22T23:30:14.559Z,19.67
2019-03-22T23:32:43.806Z,19.65
2019-03-22T23:35:13.148Z,21.62
2019-03-22T23:37:42.482Z,21.52
2019-03-22T23:40:12.238Z,17.73
2019-03-22T23:42:41.436Z,21.00
2019-03-22T23:45:11.685Z,21.00
2019-03-22T23:47:40.928Z,19.48
2019-03-22T23:50:19.261Z,19.77
2019-03-22T23:52:48.399Z,20.57
2019-03-22T23:55:18.664Z,20.20
2019-03-22T23:57:47.893Z,21.25
